sensor_id;sensor_type;location;lat;lon;timestamp;temperature;humidity
77969;DHT22;67161;0.000;0.000;2023-04-20T00:02:11;16.80;39.50
77969;DHT22;67161;0.000;0.000;2023-04-20T00:04:39;16.80;39.50
77969;DHT22;67161;0.000;0.000;2023-04-20T00:07:05;16.70;39.40
77969;DHT22;67161;0.000;0.000;2023-04-20T00:09:31;16.70;39.60
77969;DHT22;67161;0.000;0.000;2023-04-20T00:11:56;16.70;39.60
77969;DHT22;67161;0.000;0.000;2023-04-20T00:14:22;16.70;39.60
77969;DHT22;67161;0.000;0.000;2023-04-20T00:16:47;16.70;39.60
77969;DHT22;67161;0.000;0.000;2023-04-20T00:19:13;16.70;39.60
77969;DHT22;67161;0.000;0.000;2023-04-20T00:21:39;16.70;39.60
77969;DHT22;67161;0.000;0.000;2023-04-20T00:24:05;16.70;39.70
77969;DHT22;67161;0.000;0.000;2023-04-20T00:26:31;16.70;39.70
77969;DHT22;67161;0.000;0.000;2023-04-20T00:28:57;16.60;39.70
77969;DHT22;67161;0.000;0.000;2023-04-20T00:31:23;16.60;39.70
77969;DHT22;67161;0.000;0.000;2023-04-20T00:33:48;16.60;39.80
77969;DHT22;67161;0.000;0.000;2023-04-20T00:36:14;16.60;39.70
77969;DHT22;67161;0.000;0.000;2023-04-20T00:38:39;16.60;39.80
77969;DHT22;67161;0.000;0.000;2023-04-20T00:41:05;16.60;39.80
77969;DHT22;67161;0.000;0.000;2023-04-20T00:43:31;16.60;39.80
77969;DHT22;67161;0.000;0.000;2023-04-20T00:45:57;16.60;39.80
77969;DHT22;67161;0.000;0.000;2023-04-20T00:48:22;16.60;39.80
77969;DHT22;67161;0.000;0.000;2023-04-20T00:50:49;16.50;39.70
77969;DHT22;67161;0.000;0.000;2023-04-20T00:53:16;16.60;39.80
77969;DHT22;67161;0.000;0.000;2023-04-20T00:55:43;16.50;39.80
77969;DHT22;67161;0.000;0.000;2023-04-20T00:58:08;16.50;39.90
77969;DHT22;67161;0.000;0.000;2023-04-20T01:00:35;16.50;39.90
77969;DHT22;67161;0.000;0.000;2023-04-20T01:03:01;16.50;39.90
77969;DHT22;67161;0.000;0.000;2023-04-20T01:05:27;16.50;39.90
77969;DHT22;67161;0.000;0.000;2023-04-20T01:07:53;16.50;40.90
77969;DHT22;67161;0.000;0.000;2023-04-20T01:10:18;16.50;40.00
77969;DHT22;67161;0.000;0.000;2023-04-20T01:12:44;16.50;40.00
77969;DHT22;67161;0.000;0.000;2023-04-20T01:15:10;16.50;40.10
77969;DHT22;67161;0.000;0.000;2023-04-20T01:17:36;16.50;40.20
77969;DHT22;67161;0.000;0.000;2023-04-20T01:20:06;16.50;40.10
77969;DHT22;67161;0.000;0.000;2023-04-20T01:22:47;16.50;40.20
77969;DHT22;67161;0.000;0.000;2023-04-20T01:25:13;16.50;40.20
77969;DHT22;67161;0.000;0.000;2023-04-20T01:27:39;16.40;40.10
77969;DHT22;67161;0.000;0.000;2023-04-20T01:30:05;16.40;40.20
77969;DHT22;67161;0.000;0.000;2023-04-20T01:32:31;16.40;40.20
77969;DHT22;67161;0.000;0.000;2023-04-20T01:34:56;16.40;40.20
77969;DHT22;67161;0.000;0.000;2023-04-20T01:37:22;16.40;40.20
77969;DHT22;67161;0.000;0.000;2023-04-20T01:39:48;16.40;40.30
77969;DHT22;67161;0.000;0.000;2023-04-20T01:42:13;16.40;40.30
77969;DHT22;67161;0.000;0.000;2023-04-20T01:44:39;16.40;41.30
77969;DHT22;67161;0.000;0.000;2023-04-20T01:47:04;16.40;40.40
77969;DHT22;67161;0.000;0.000;2023-04-20T01:49:30;16.40;40.40
77969;DHT22;67161;0.000;0.000;2023-04-20T01:51:55;16.40;40.40
77969;DHT22;67161;0.000;0.000;2023-04-20T01:54:21;16.40;40.40
77969;DHT22;67161;0.000;0.000;2023-04-20T01:56:47;16.40;40.50
77969;DHT22;67161;0.000;0.000;2023-04-20T01:59:12;16.40;40.50
77969;DHT22;67161;0.000;0.000;2023-04-20T02:01:38;16.40;40.50
77969;DHT22;67161;0.000;0.000;2023-04-20T02:04:04;16.30;40.50
77969;DHT22;67161;0.000;0.000;2023-04-20T02:06:29;16.30;40.50
77969;DHT22;67161;0.000;0.000;2023-04-20T02:08:56;16.30;40.50
77969;DHT22;67161;0.000;0.000;2023-04-20T02:11:21;16.30;40.60
77969;DHT22;67161;0.000;0.000;2023-04-20T02:13:47;16.30;40.60
77969;DHT22;67161;0.000;0.000;2023-04-20T02:16:13;16.30;40.60
77969;DHT22;67161;0.000;0.000;2023-04-20T02:18:38;16.30;40.70
77969;DHT22;67161;0.000;0.000;2023-04-20T02:21:05;16.30;40.70
77969;DHT22;67161;0.000;0.000;2023-04-20T02:23:30;16.30;40.70
77969;DHT22;67161;0.000;0.000;2023-04-20T02:25:56;16.30;40.70
77969;DHT22;67161;0.000;0.000;2023-04-20T02:28:21;16.30;40.80
77969;DHT22;67161;0.000;0.000;2023-04-20T02:30:47;16.30;40.70
77969;DHT22;67161;0.000;0.000;2023-04-20T02:33:13;16.30;40.70
77969;DHT22;67161;0.000;0.000;2023-04-20T02:35:38;16.30;40.80
77969;DHT22;67161;0.000;0.000;2023-04-20T02:38:04;16.30;40.90
77969;DHT22;67161;0.000;0.000;2023-04-20T02:40:29;16.30;40.90
77969;DHT22;67161;0.000;0.000;2023-04-20T02:42:55;16.20;41.80
77969;DHT22;67161;0.000;0.000;2023-04-20T02:45:21;16.20;41.00
77969;DHT22;67161;0.000;0.000;2023-04-20T02:47:46;16.20;41.00
77969;DHT22;67161;0.000;0.000;2023-04-20T02:50:13;16.20;41.00
77969;DHT22;67161;0.000;0.000;2023-04-20T02:52:38;16.20;41.00
77969;DHT22;67161;0.000;0.000;2023-04-20T02:55:04;16.20;42.00
77969;DHT22;67161;0.000;0.000;2023-04-20T02:57:30;16.20;41.10
77969;DHT22;67161;0.000;0.000;2023-04-20T02:59:55;16.20;41.10
77969;DHT22;67161;0.000;0.000;2023-04-20T03:02:21;16.20;41.10
77969;DHT22;67161;0.000;0.000;2023-04-20T03:04:47;16.20;41.10
77969;DHT22;67161;0.000;0.000;2023-04-20T03:07:13;16.20;41.10
77969;DHT22;67161;0.000;0.000;2023-04-20T03:09:40;16.10;41.00
77969;DHT22;67161;0.000;0.000;2023-04-20T03:12:05;16.10;41.00
77969;DHT22;67161;0.000;0.000;2023-04-20T03:14:31;16.10;41.00
77969;DHT22;67161;0.000;0.000;2023-04-20T03:16:57;16.10;41.00
77969;DHT22;67161;0.000;0.000;2023-04-20T03:19:23;16.10;41.00
77969;DHT22;67161;0.000;0.000;2023-04-20T03:21:48;16.10;41.90
77969;DHT22;67161;0.000;0.000;2023-04-20T03:24:14;16.10;41.00
77969;DHT22;67161;0.000;0.000;2023-04-20T03:26:40;16.10;41.00
77969;DHT22;67161;0.000;0.000;2023-04-20T03:29:06;16.00;40.90
77969;DHT22;67161;0.000;0.000;2023-04-20T03:31:32;16.00;40.90
77969;DHT22;67161;0.000;0.000;2023-04-20T03:33:57;16.00;40.90
77969;DHT22;67161;0.000;0.000;2023-04-20T03:36:23;16.00;40.90
77969;DHT22;67161;0.000;0.000;2023-04-20T03:38:49;16.00;40.90
77969;DHT22;67161;0.000;0.000;2023-04-20T03:41:14;16.00;40.90
77969;DHT22;67161;0.000;0.000;2023-04-20T03:43:40;16.00;40.90
77969;DHT22;67161;0.000;0.000;2023-04-20T03:46:06;16.00;40.90
77969;DHT22;67161;0.000;0.000;2023-04-20T03:48:32;16.00;40.90
77969;DHT22;67161;0.000;0.000;2023-04-20T03:50:58;16.00;40.90
77969;DHT22;67161;0.000;0.000;2023-04-20T03:53:24;16.00;40.80
77969;DHT22;67161;0.000;0.000;2023-04-20T03:55:49;16.00;40.80
77969;DHT22;67161;0.000;0.000;2023-04-20T03:58:15;16.00;40.80
77969;DHT22;67161;0.000;0.000;2023-04-20T04:00:41;15.90;40.70
77969;DHT22;67161;0.000;0.000;2023-04-20T04:03:07;15.90;40.80
77969;DHT22;67161;0.000;0.000;2023-04-20T04:05:32;15.90;40.70
77969;DHT22;67161;0.000;0.000;2023-04-20T04:07:58;15.90;40.70
77969;DHT22;67161;0.000;0.000;2023-04-20T04:10:24;15.90;40.60
77969;DHT22;67161;0.000;0.000;2023-04-20T04:12:49;15.90;40.70
77969;DHT22;67161;0.000;0.000;2023-04-20T04:15:15;15.90;40.60
77969;DHT22;67161;0.000;0.000;2023-04-20T04:17:43;15.90;40.60
77969;DHT22;67161;0.000;0.000;2023-04-20T04:20:09;15.90;40.50
77969;DHT22;67161;0.000;0.000;2023-04-20T04:22:36;15.90;40.50
77969;DHT22;67161;0.000;0.000;2023-04-20T04:25:01;15.90;40.50
77969;DHT22;67161;0.000;0.000;2023-04-20T04:27:27;15.80;40.50
77969;DHT22;67161;0.000;0.000;2023-04-20T04:30:02;15.90;40.50
77969;DHT22;67161;0.000;0.000;2023-04-20T04:32:27;15.80;40.50
77969;DHT22;67161;0.000;0.000;2023-04-20T04:34:53;15.80;40.50
77969;DHT22;67161;0.000;0.000;2023-04-20T04:37:19;15.80;40.50
77969;DHT22;67161;0.000;0.000;2023-04-20T04:39:46;15.80;40.50
77969;DHT22;67161;0.000;0.000;2023-04-20T04:42:11;15.80;40.40
77969;DHT22;67161;0.000;0.000;2023-04-20T04:44:37;15.80;41.30
77969;DHT22;67161;0.000;0.000;2023-04-20T04:47:04;15.80;40.30
77969;DHT22;67161;0.000;0.000;2023-04-20T04:49:31;15.80;40.30
77969;DHT22;67161;0.000;0.000;2023-04-20T04:51:56;15.80;41.20
77969;DHT22;67161;0.000;0.000;2023-04-20T04:54:22;15.80;40.30
77969;DHT22;67161;0.000;0.000;2023-04-20T04:56:47;15.80;40.20
77969;DHT22;67161;0.000;0.000;2023-04-20T04:59:13;15.70;40.10
77969;DHT22;67161;0.000;0.000;2023-04-20T05:01:39;15.70;40.10
77969;DHT22;67161;0.000;0.000;2023-04-20T05:04:04;15.80;40.20
77969;DHT22;67161;0.000;0.000;2023-04-20T05:06:30;15.70;40.10
77969;DHT22;67161;0.000;0.000;2023-04-20T05:08:57;15.70;40.10
77969;DHT22;67161;0.000;0.000;2023-04-20T05:11:22;15.70;40.00
77969;DHT22;67161;0.000;0.000;2023-04-20T05:13:48;15.70;40.00
77969;DHT22;67161;0.000;0.000;2023-04-20T05:16:14;15.70;40.10
77969;DHT22;67161;0.000;0.000;2023-04-20T05:18:39;15.70;40.00
77969;DHT22;67161;0.000;0.000;2023-04-20T05:21:05;15.70;40.00
77969;DHT22;67161;0.000;0.000;2023-04-20T05:23:31;15.70;40.00
77969;DHT22;67161;0.000;0.000;2023-04-20T05:25:56;15.70;40.10
77969;DHT22;67161;0.000;0.000;2023-04-20T05:28:22;15.70;40.00
77969;DHT22;67161;0.000;0.000;2023-04-20T05:30:47;15.70;40.00
77969;DHT22;67161;0.000;0.000;2023-04-20T05:33:13;15.70;40.10
77969;DHT22;67161;0.000;0.000;2023-04-20T05:35:38;15.70;40.10
77969;DHT22;67161;0.000;0.000;2023-04-20T05:38:05;15.70;40.10
77969;DHT22;67161;0.000;0.000;2023-04-20T05:40:32;15.70;40.20
77969;DHT22;67161;0.000;0.000;2023-04-20T05:43:01;15.70;40.20
77969;DHT22;67161;0.000;0.000;2023-04-20T05:45:27;15.70;40.20
77969;DHT22;67161;0.000;0.000;2023-04-20T05:47:53;15.70;40.20
77969;DHT22;67161;0.000;0.000;2023-04-20T05:50:20;15.60;40.20
77969;DHT22;67161;0.000;0.000;2023-04-20T05:52:45;15.70;40.20
77969;DHT22;67161;0.000;0.000;2023-04-20T05:55:11;15.70;40.30
77969;DHT22;67161;0.000;0.000;2023-04-20T05:57:36;15.70;40.30
77969;DHT22;67161;0.000;0.000;2023-04-20T06:00:08;15.70;40.30
77969;DHT22;67161;0.000;0.000;2023-04-20T06:02:35;15.70;40.30
77969;DHT22;67161;0.000;0.000;2023-04-20T06:05:01;15.70;40.30
77969;DHT22;67161;0.000;0.000;2023-04-20T06:07:27;15.70;40.40
77969;DHT22;67161;0.000;0.000;2023-04-20T06:09:53;15.70;40.40
77969;DHT22;67161;0.000;0.000;2023-04-20T06:12:18;15.70;40.40
77969;DHT22;67161;0.000;0.000;2023-04-20T06:14:44;15.70;40.40
77969;DHT22;67161;0.000;0.000;2023-04-20T06:17:10;15.70;40.40
77969;DHT22;67161;0.000;0.000;2023-04-20T06:19:35;15.60;40.40
77969;DHT22;67161;0.000;0.000;2023-04-20T06:22:06;15.60;40.50
77969;DHT22;67161;0.000;0.000;2023-04-20T06:24:32;15.60;40.50
77969;DHT22;67161;0.000;0.000;2023-04-20T06:26:58;15.60;40.50
77969;DHT22;67161;0.000;0.000;2023-04-20T06:29:23;15.60;40.50
77969;DHT22;67161;0.000;0.000;2023-04-20T06:31:49;15.60;40.50
77969;DHT22;67161;0.000;0.000;2023-04-20T06:34:14;15.60;40.60
77969;DHT22;67161;0.000;0.000;2023-04-20T06:36:43;15.60;40.60
77969;DHT22;67161;0.000;0.000;2023-04-20T06:39:09;15.60;40.60
77969;DHT22;67161;0.000;0.000;2023-04-20T06:41:37;15.60;40.70
77969;DHT22;67161;0.000;0.000;2023-04-20T06:44:04;15.60;40.70
77969;DHT22;67161;0.000;0.000;2023-04-20T06:46:30;15.60;40.70
77969;DHT22;67161;0.000;0.000;2023-04-20T06:48:56;15.60;40.80
77969;DHT22;67161;0.000;0.000;2023-04-20T06:51:21;15.60;40.80
77969;DHT22;67161;0.000;0.000;2023-04-20T06:53:47;15.60;40.90
77969;DHT22;67161;0.000;0.000;2023-04-20T06:56:13;15.60;40.90
77969;DHT22;67161;0.000;0.000;2023-04-20T06:58:38;15.60;41.00
77969;DHT22;67161;0.000;0.000;2023-04-20T07:01:04;15.60;40.90
77969;DHT22;67161;0.000;0.000;2023-04-20T07:03:30;15.60;41.00
77969;DHT22;67161;0.000;0.000;2023-04-20T07:05:56;15.60;41.00
77969;DHT22;67161;0.000;0.000;2023-04-20T07:08:21;15.60;41.00
77969;DHT22;67161;0.000;0.000;2023-04-20T07:10:47;15.60;41.10
77969;DHT22;67161;0.000;0.000;2023-04-20T07:13:13;15.60;41.20
77969;DHT22;67161;0.000;0.000;2023-04-20T07:15:38;15.60;41.20
77969;DHT22;67161;0.000;0.000;2023-04-20T07:18:04;15.60;41.30
77969;DHT22;67161;0.000;0.000;2023-04-20T07:20:30;15.60;41.20
77969;DHT22;67161;0.000;0.000;2023-04-20T07:22:56;15.60;41.30
77969;DHT22;67161;0.000;0.000;2023-04-20T07:25:22;15.60;41.30
77969;DHT22;67161;0.000;0.000;2023-04-20T07:27:48;15.60;41.40
77969;DHT22;67161;0.000;0.000;2023-04-20T07:30:14;15.60;41.40
77969;DHT22;67161;0.000;0.000;2023-04-20T07:32:40;15.70;41.50
77969;DHT22;67161;0.000;0.000;2023-04-20T07:35:06;15.70;41.50
77969;DHT22;67161;0.000;0.000;2023-04-20T07:37:33;15.70;41.60
77969;DHT22;67161;0.000;0.000;2023-04-20T07:39:58;15.70;41.60
77969;DHT22;67161;0.000;0.000;2023-04-20T07:42:24;15.70;41.70
77969;DHT22;67161;0.000;0.000;2023-04-20T07:44:50;15.70;41.70
77969;DHT22;67161;0.000;0.000;2023-04-20T07:47:16;15.60;41.70
77969;DHT22;67161;0.000;0.000;2023-04-20T07:49:42;15.60;41.80
77969;DHT22;67161;0.000;0.000;2023-04-20T07:52:08;15.70;41.80
77969;DHT22;67161;0.000;0.000;2023-04-20T07:54:34;15.70;41.80
77969;DHT22;67161;0.000;0.000;2023-04-20T07:57:00;15.70;41.90
77969;DHT22;67161;0.000;0.000;2023-04-20T07:59:27;15.70;41.90
77969;DHT22;67161;0.000;0.000;2023-04-20T08:01:58;15.70;42.00
77969;DHT22;67161;0.000;0.000;2023-04-20T08:04:24;15.70;42.00
77969;DHT22;67161;0.000;0.000;2023-04-20T08:06:50;15.70;42.00
77969;DHT22;67161;0.000;0.000;2023-04-20T08:09:15;15.60;42.00
77969;DHT22;67161;0.000;0.000;2023-04-20T08:11:41;15.60;42.10
77969;DHT22;67161;0.000;0.000;2023-04-20T08:14:11;15.60;42.10
77969;DHT22;67161;0.000;0.000;2023-04-20T08:16:36;15.60;42.10
77969;DHT22;67161;0.000;0.000;2023-04-20T08:19:02;15.60;42.20
77969;DHT22;67161;0.000;0.000;2023-04-20T08:21:35;15.60;42.20
77969;DHT22;67161;0.000;0.000;2023-04-20T08:24:00;15.60;42.20
77969;DHT22;67161;0.000;0.000;2023-04-20T08:26:26;15.60;43.20
77969;DHT22;67161;0.000;0.000;2023-04-20T08:28:52;15.60;42.30
77969;DHT22;67161;0.000;0.000;2023-04-20T08:31:17;15.60;42.30
77969;DHT22;67161;0.000;0.000;2023-04-20T08:33:43;15.60;42.30
77969;DHT22;67161;0.000;0.000;2023-04-20T08:36:08;15.60;42.40
77969;DHT22;67161;0.000;0.000;2023-04-20T08:38:34;15.60;42.40
77969;DHT22;67161;0.000;0.000;2023-04-20T08:41:01;15.60;42.40
77969;DHT22;67161;0.000;0.000;2023-04-20T08:43:26;15.60;42.50
77969;DHT22;67161;0.000;0.000;2023-04-20T08:45:58;15.60;42.50
77969;DHT22;67161;0.000;0.000;2023-04-20T08:48:25;15.60;42.50
77969;DHT22;67161;0.000;0.000;2023-04-20T08:50:53;15.60;42.60
77969;DHT22;67161;0.000;0.000;2023-04-20T08:53:19;15.60;42.60
77969;DHT22;67161;0.000;0.000;2023-04-20T08:55:48;15.50;42.60
77969;DHT22;67161;0.000;0.000;2023-04-20T08:58:14;15.60;43.60
77969;DHT22;67161;0.000;0.000;2023-04-20T09:00:47;15.60;43.60
77969;DHT22;67161;0.000;0.000;2023-04-20T09:03:13;15.60;42.80
77969;DHT22;67161;0.000;0.000;2023-04-20T09:05:38;15.60;42.70
77969;DHT22;67161;0.000;0.000;2023-04-20T09:08:04;15.60;42.80
77969;DHT22;67161;0.000;0.000;2023-04-20T09:10:43;15.60;42.80
77969;DHT22;67161;0.000;0.000;2023-04-20T09:13:20;15.70;42.90
77969;DHT22;67161;0.000;0.000;2023-04-20T09:15:46;15.70;43.00
77969;DHT22;67161;0.000;0.000;2023-04-20T09:18:13;15.70;42.80
77969;DHT22;67161;0.000;0.000;2023-04-20T09:20:39;15.70;42.90
77969;DHT22;67161;0.000;0.000;2023-04-20T09:23:18;15.70;42.90
77969;DHT22;67161;0.000;0.000;2023-04-20T09:25:49;15.70;43.00
77969;DHT22;67161;0.000;0.000;2023-04-20T09:28:14;15.70;43.00
77969;DHT22;67161;0.000;0.000;2023-04-20T09:30:47;15.70;43.00
77969;DHT22;67161;0.000;0.000;2023-04-20T09:33:13;15.70;43.00
77969;DHT22;67161;0.000;0.000;2023-04-20T09:35:43;15.70;43.10
77969;DHT22;67161;0.000;0.000;2023-04-20T09:38:13;15.70;43.10
77969;DHT22;67161;0.000;0.000;2023-04-20T09:40:39;15.70;43.10
77969;DHT22;67161;0.000;0.000;2023-04-20T09:43:12;15.70;43.10
77969;DHT22;67161;0.000;0.000;2023-04-20T09:45:38;15.70;43.20
77969;DHT22;67161;0.000;0.000;2023-04-20T09:48:05;15.60;43.10
77969;DHT22;67161;0.000;0.000;2023-04-20T09:50:31;15.70;43.10
77969;DHT22;67161;0.000;0.000;2023-04-20T09:53:00;15.70;43.20
77969;DHT22;67161;0.000;0.000;2023-04-20T09:55:26;15.70;43.30
77969;DHT22;67161;0.000;0.000;2023-04-20T09:57:55;15.70;43.20
77969;DHT22;67161;0.000;0.000;2023-04-20T10:00:21;15.70;43.20
77969;DHT22;67161;0.000;0.000;2023-04-20T10:02:47;15.70;43.30
77969;DHT22;67161;0.000;0.000;2023-04-20T10:05:13;15.70;43.30
77969;DHT22;67161;0.000;0.000;2023-04-20T10:07:41;15.70;43.30
77969;DHT22;67161;0.000;0.000;2023-04-20T10:10:11;15.70;43.30
77969;DHT22;67161;0.000;0.000;2023-04-20T10:12:54;15.70;43.40
77969;DHT22;67161;0.000;0.000;2023-04-20T10:15:21;15.80;43.50
77969;DHT22;67161;0.000;0.000;2023-04-20T10:17:48;15.80;43.40
77969;DHT22;67161;0.000;0.000;2023-04-20T10:20:32;15.80;43.40
77969;DHT22;67161;0.000;0.000;2023-04-20T10:23:08;15.80;43.50
77969;DHT22;67161;0.000;0.000;2023-04-20T10:25:34;15.80;43.50
77969;DHT22;67161;0.000;0.000;2023-04-20T10:28:02;15.80;43.50
77969;DHT22;67161;0.000;0.000;2023-04-20T10:30:34;15.70;43.40
77969;DHT22;67161;0.000;0.000;2023-04-20T10:33:07;15.70;43.50
77969;DHT22;67161;0.000;0.000;2023-04-20T10:35:51;15.70;43.50
77969;DHT22;67161;0.000;0.000;2023-04-20T10:38:32;15.70;43.70
77969;DHT22;67161;0.000;0.000;2023-04-20T10:41:09;15.70;43.70
77969;DHT22;67161;0.000;0.000;2023-04-20T10:43:34;15.70;43.70
77969;DHT22;67161;0.000;0.000;2023-04-20T10:46:18;15.70;43.70
77969;DHT22;67161;0.000;0.000;2023-04-20T10:48:54;15.60;43.80
77969;DHT22;67161;0.000;0.000;2023-04-20T10:51:20;15.60;43.90
77969;DHT22;67161;0.000;0.000;2023-04-20T10:54:00;15.60;43.80
77969;DHT22;67161;0.000;0.000;2023-04-20T10:56:26;15.60;44.00
77969;DHT22;67161;0.000;0.000;2023-04-20T10:58:52;15.60;43.90
77969;DHT22;67161;0.000;0.000;2023-04-20T11:01:18;15.60;43.90
77969;DHT22;67161;0.000;0.000;2023-04-20T11:03:49;15.60;43.90
77969;DHT22;67161;0.000;0.000;2023-04-20T11:06:16;15.60;44.00
77969;DHT22;67161;0.000;0.000;2023-04-20T11:08:42;15.60;44.00
77969;DHT22;67161;0.000;0.000;2023-04-20T11:11:25;15.60;44.10
77969;DHT22;67161;0.000;0.000;2023-04-20T11:14:03;15.60;45.20
77969;DHT22;67161;0.000;0.000;2023-04-20T11:16:29;15.60;44.20
77969;DHT22;67161;0.000;0.000;2023-04-20T11:18:55;15.60;44.20
77969;DHT22;67161;0.000;0.000;2023-04-20T11:21:22;15.60;44.20
77969;DHT22;67161;0.000;0.000;2023-04-20T11:23:48;15.60;44.20
77969;DHT22;67161;0.000;0.000;2023-04-20T11:26:14;15.60;44.30
77969;DHT22;67161;0.000;0.000;2023-04-20T11:28:51;15.60;44.30
77969;DHT22;67161;0.000;0.000;2023-04-20T11:31:17;15.60;44.40
77969;DHT22;67161;0.000;0.000;2023-04-20T11:33:43;15.60;44.40
77969;DHT22;67161;0.000;0.000;2023-04-20T11:36:18;15.60;44.40
77969;DHT22;67161;0.000;0.000;2023-04-20T11:38:43;15.60;44.50
77969;DHT22;67161;0.000;0.000;2023-04-20T11:41:10;15.60;44.50
77969;DHT22;67161;0.000;0.000;2023-04-20T11:43:36;15.60;44.50
77969;DHT22;67161;0.000;0.000;2023-04-20T11:46:01;15.60;44.50
77969;DHT22;67161;0.000;0.000;2023-04-20T11:48:30;15.60;44.50
77969;DHT22;67161;0.000;0.000;2023-04-20T11:50:56;15.60;44.60
77969;DHT22;67161;0.000;0.000;2023-04-20T11:53:22;15.60;44.60
77969;DHT22;67161;0.000;0.000;2023-04-20T11:55:48;15.60;44.70
77969;DHT22;67161;0.000;0.000;2023-04-20T11:58:14;15.60;44.80
77969;DHT22;67161;0.000;0.000;2023-04-20T12:00:39;15.60;44.70
77969;DHT22;67161;0.000;0.000;2023-04-20T12:03:05;15.60;44.70
77969;DHT22;67161;0.000;0.000;2023-04-20T12:05:31;15.70;44.70
77969;DHT22;67161;0.000;0.000;2023-04-20T12:07:57;15.70;44.70
77969;DHT22;67161;0.000;0.000;2023-04-20T12:10:22;15.70;44.60
77969;DHT22;67161;0.000;0.000;2023-04-20T12:12:48;15.80;44.70
77969;DHT22;67161;0.000;0.000;2023-04-20T12:15:13;15.80;44.70
77969;DHT22;67161;0.000;0.000;2023-04-20T12:17:39;15.80;44.70
77969;DHT22;67161;0.000;0.000;2023-04-20T12:20:05;15.80;44.70
77969;DHT22;67161;0.000;0.000;2023-04-20T12:22:36;15.80;44.70
77969;DHT22;67161;0.000;0.000;2023-04-20T12:25:02;15.80;44.80
77969;DHT22;67161;0.000;0.000;2023-04-20T12:27:28;15.90;44.80
77969;DHT22;67161;0.000;0.000;2023-04-20T12:29:54;15.90;44.70
77969;DHT22;67161;0.000;0.000;2023-04-20T12:32:19;15.90;44.80
77969;DHT22;67161;0.000;0.000;2023-04-20T12:34:45;15.90;44.80
77969;DHT22;67161;0.000;0.000;2023-04-20T12:37:10;15.90;44.80
77969;DHT22;67161;0.000;0.000;2023-04-20T12:39:36;15.90;44.70
77969;DHT22;67161;0.000;0.000;2023-04-20T12:42:02;15.90;44.80
77969;DHT22;67161;0.000;0.000;2023-04-20T12:44:28;16.00;44.90
77969;DHT22;67161;0.000;0.000;2023-04-20T12:46:53;16.00;44.80
77969;DHT22;67161;0.000;0.000;2023-04-20T12:49:19;16.00;44.80
77969;DHT22;67161;0.000;0.000;2023-04-20T12:51:45;16.10;44.90
77969;DHT22;67161;0.000;0.000;2023-04-20T12:54:10;16.10;44.80
77969;DHT22;67161;0.000;0.000;2023-04-20T12:56:36;16.10;44.70
77969;DHT22;67161;0.000;0.000;2023-04-20T12:59:02;16.10;44.70
77969;DHT22;67161;0.000;0.000;2023-04-20T13:01:27;16.20;44.80
77969;DHT22;67161;0.000;0.000;2023-04-20T13:03:54;16.20;44.80
77969;DHT22;67161;0.000;0.000;2023-04-20T13:06:19;16.20;44.80
77969;DHT22;67161;0.000;0.000;2023-04-20T13:08:45;16.20;45.70
77969;DHT22;67161;0.000;0.000;2023-04-20T13:11:10;16.20;44.80
77969;DHT22;67161;0.000;0.000;2023-04-20T13:13:36;16.30;44.80
77969;DHT22;67161;0.000;0.000;2023-04-20T13:16:02;16.20;44.60
77969;DHT22;67161;0.000;0.000;2023-04-20T13:18:27;16.30;44.70
77969;DHT22;67161;0.000;0.000;2023-04-20T13:20:53;16.30;44.70
77969;DHT22;67161;0.000;0.000;2023-04-20T13:23:19;16.30;44.70
77969;DHT22;67161;0.000;0.000;2023-04-20T13:25:44;16.30;44.60
77969;DHT22;67161;0.000;0.000;2023-04-20T13:28:10;16.30;44.50
77969;DHT22;67161;0.000;0.000;2023-04-20T13:30:36;16.40;44.40
77969;DHT22;67161;0.000;0.000;2023-04-20T13:33:03;16.40;45.40
77969;DHT22;67161;0.000;0.000;2023-04-20T13:35:28;16.40;44.30
77969;DHT22;67161;0.000;0.000;2023-04-20T13:37:54;16.40;44.40
77969;DHT22;67161;0.000;0.000;2023-04-20T13:40:20;16.50;44.50
77969;DHT22;67161;0.000;0.000;2023-04-20T13:42:46;16.50;44.50
77969;DHT22;67161;0.000;0.000;2023-04-20T13:45:12;16.50;44.50
77969;DHT22;67161;0.000;0.000;2023-04-20T13:47:38;16.60;44.40
77969;DHT22;67161;0.000;0.000;2023-04-20T13:50:05;16.50;44.40
77969;DHT22;67161;0.000;0.000;2023-04-20T13:52:31;16.60;44.40
77969;DHT22;67161;0.000;0.000;2023-04-20T13:54:57;16.60;44.40
77969;DHT22;67161;0.000;0.000;2023-04-20T13:57:23;16.60;44.40
77969;DHT22;67161;0.000;0.000;2023-04-20T13:59:48;16.60;44.40
77969;DHT22;67161;0.000;0.000;2023-04-20T14:02:14;16.60;44.40
77969;DHT22;67161;0.000;0.000;2023-04-20T14:04:40;16.60;44.40
77969;DHT22;67161;0.000;0.000;2023-04-20T14:07:06;16.60;44.40
77969;DHT22;67161;0.000;0.000;2023-04-20T14:09:31;16.60;44.50
77969;DHT22;67161;0.000;0.000;2023-04-20T14:11:57;16.70;44.40
77969;DHT22;67161;0.000;0.000;2023-04-20T14:14:23;16.70;44.40
77969;DHT22;67161;0.000;0.000;2023-04-20T14:16:49;16.80;44.40
77969;DHT22;67161;0.000;0.000;2023-04-20T14:19:15;16.80;44.30
77969;DHT22;67161;0.000;0.000;2023-04-20T14:21:41;16.80;44.40
77969;DHT22;67161;0.000;0.000;2023-04-20T14:24:12;16.80;44.30
77969;DHT22;67161;0.000;0.000;2023-04-20T14:26:38;16.80;44.30
77969;DHT22;67161;0.000;0.000;2023-04-20T14:29:04;16.90;44.30
77969;DHT22;67161;0.000;0.000;2023-04-20T14:31:30;16.90;44.30
77969;DHT22;67161;0.000;0.000;2023-04-20T14:33:56;16.90;44.20
77969;DHT22;67161;0.000;0.000;2023-04-20T14:36:22;16.90;44.00
77969;DHT22;67161;0.000;0.000;2023-04-20T14:38:48;17.00;44.00
77969;DHT22;67161;0.000;0.000;2023-04-20T14:41:16;17.00;44.00
77969;DHT22;67161;0.000;0.000;2023-04-20T14:43:42;17.00;43.90
77969;DHT22;67161;0.000;0.000;2023-04-20T14:46:08;17.00;43.90
77969;DHT22;67161;0.000;0.000;2023-04-20T14:48:33;17.10;43.90
77969;DHT22;67161;0.000;0.000;2023-04-20T14:51:03;17.10;43.70
77969;DHT22;67161;0.000;0.000;2023-04-20T14:53:28;17.10;43.70
77969;DHT22;67161;0.000;0.000;2023-04-20T14:55:54;17.10;43.60
77969;DHT22;67161;0.000;0.000;2023-04-20T14:58:19;17.10;43.60
77969;DHT22;67161;0.000;0.000;2023-04-20T15:00:45;17.10;43.50
77969;DHT22;67161;0.000;0.000;2023-04-20T15:03:13;17.10;43.50
77969;DHT22;67161;0.000;0.000;2023-04-20T15:05:40;17.10;43.40
77969;DHT22;67161;0.000;0.000;2023-04-20T15:08:05;17.10;43.40
77969;DHT22;67161;0.000;0.000;2023-04-20T15:10:31;17.20;43.40
77969;DHT22;67161;0.000;0.000;2023-04-20T15:12:57;17.10;43.30
77969;DHT22;67161;0.000;0.000;2023-04-20T15:15:22;17.10;43.30
77969;DHT22;67161;0.000;0.000;2023-04-20T15:17:48;17.20;43.30
77969;DHT22;67161;0.000;0.000;2023-04-20T15:20:14;17.20;43.30
77969;DHT22;67161;0.000;0.000;2023-04-20T15:22:40;17.20;43.20
77969;DHT22;67161;0.000;0.000;2023-04-20T15:25:06;17.20;43.20
77969;DHT22;67161;0.000;0.000;2023-04-20T15:27:33;17.30;43.10
77969;DHT22;67161;0.000;0.000;2023-04-20T15:29:59;17.30;43.10
77969;DHT22;67161;0.000;0.000;2023-04-20T15:32:25;17.30;43.10
77969;DHT22;67161;0.000;0.000;2023-04-20T15:34:51;17.40;43.20
77969;DHT22;67161;0.000;0.000;2023-04-20T15:37:17;17.40;43.20
77969;DHT22;67161;0.000;0.000;2023-04-20T15:39:42;17.40;43.20
77969;DHT22;67161;0.000;0.000;2023-04-20T15:42:09;17.40;43.10